Time;durP1;ratioP1;P1;durP2;ratioP2;P2;SDS_P1;SDS_P2;PMS_P1;PMS_P2;Temp;Humidity;BMP_temperature;BMP_pressure;BME280_temperature;BME280_humidity;BME280_pressure;Samples;Min_cycle;Max_cycle;Signal;HPM_P1;HPM_P2
2021/09/23 00:00:47;;;;;;;1.90;0.75;;;;;;;17.18;75.62;101445.41;5087014;28;20059;-79
2021/09/23 00:03:21;;;;;;;5.35;1.10;;;;;;;17.15;75.92;101437.75;5099825;27;20056;-79
2021/09/23 00:05:48;;;;;;;1.90;0.70;;;;;;;17.09;76.44;101447.63;5086904;28;20129;-79
2021/09/23 00:08:15;;;;;;;2.78;0.93;;;;;;;17.03;77.07;101449.09;5087205;28;20040;-79
2021/09/23 00:10:42;;;;;;;0.88;0.60;;;;;;;16.99;77.33;101442.66;5085441;28;20129;-79
2021/09/23 00:13:10;;;;;;;5.22;1.65;;;;;;;16.97;77.67;101443.00;5087142;28;20075;-79
2021/09/23 00:15:37;;;;;;;1.17;0.80;;;;;;;16.96;77.81;101448.97;5086343;28;20460;-79
2021/09/23 00:18:16;;;;;;;3.45;1.15;;;;;;;16.94;78.40;101440.16;5084872;28;20040;-79
2021/09/23 00:20:48;;;;;;;2.13;1.73;;;;;;;16.95;79.04;101444.56;5085829;28;20154;-79
2021/09/23 00:23:15;;;;;;;4.13;0.80;;;;;;;16.93;78.40;101442.16;5087591;28;20044;-79
2021/09/23 00:25:42;;;;;;;3.40;0.95;;;;;;;16.93;78.47;101438.53;5070347;28;20032;-79
2021/09/23 00:28:10;;;;;;;1.65;0.70;;;;;;;16.90;79.04;101439.28;5085974;28;20047;-79
2021/09/23 00:30:37;;;;;;;1.92;0.73;;;;;;;16.88;79.15;101436.03;5086250;28;20079;-79
2021/09/23 00:33:05;;;;;;;1.70;0.68;;;;;;;16.90;79.06;101430.88;5085107;28;20074;-79
2021/09/23 00:35:32;;;;;;;3.38;0.90;;;;;;;16.90;79.24;101433.69;5084239;28;20530;-79
2021/09/23 00:37:58;;;;;;;1.83;0.77;;;;;;;16.85;79.55;101437.59;5086271;28;20385;-79
2021/09/23 00:40:25;;;;;;;3.40;1.20;;;;;;;16.87;79.53;101442.81;5068789;28;20048;-79
2021/09/23 00:42:52;;;;;;;2.45;0.77;;;;;;;16.88;79.71;101436.03;5087826;28;20553;-79
2021/09/23 00:45:21;;;;;;;5.28;0.82;;;;;;;16.91;79.58;101429.72;5087502;28;20044;-79
2021/09/23 00:47:49;;;;;;;3.00;0.90;;;;;;;16.91;79.48;101429.72;5084371;28;20044;-80
2021/09/23 00:50:17;;;;;;;3.53;0.82;;;;;;;16.89;79.56;101435.66;5086888;28;20097;-79
2021/09/23 00:52:44;;;;;;;2.05;0.40;;;;;;;16.89;79.76;101432.06;5084989;28;20032;-79
2021/09/23 00:55:11;;;;;;;2.67;0.63;;;;;;;16.90;79.81;101428.09;5086812;28;20472;-79
2021/09/23 00:57:40;;;;;;;1.77;0.60;;;;;;;16.90;80.11;101428.09;5087469;28;20054;-79
2021/09/23 01:00:11;;;;;;;0.77;0.60;;;;;;;16.88;79.98;101416.47;5082921;28;20048;-79
2021/09/23 01:02:38;;;;;;;3.28;0.70;;;;;;;16.90;79.94;101412.13;5084066;28;20040;-79
2021/09/23 01:05:06;;;;;;;1.70;0.82;;;;;;;16.93;79.95;101410.56;5087820;28;20035;-79
2021/09/23 01:07:33;;;;;;;2.13;0.47;;;;;;;16.92;80.00;101420.13;5085485;28;20064;-79
2021/09/23 01:10:03;;;;;;;0.90;0.60;;;;;;;16.89;80.26;101420.88;5086788;28;20156;-79
2021/09/23 01:12:30;;;;;;;4.70;1.20;;;;;;;16.90;80.42;101405.72;5085547;28;20905;-79
2021/09/23 01:14:57;;;;;;;3.83;0.57;;;;;;;16.91;80.14;101410.13;5087645;28;20197;-79
2021/09/23 01:17:23;;;;;;;3.45;1.85;;;;;;;16.86;80.66;101404.84;5085645;28;20044;-79
2021/09/23 01:19:50;;;;;;;1.00;0.73;;;;;;;16.85;80.77;101392.84;5086242;28;20089;-79
2021/09/23 01:22:18;;;;;;;2.75;0.50;;;;;;;16.85;81.09;101386.44;5085849;28;20070;-79
2021/09/23 01:24:45;;;;;;;1.10;0.85;;;;;;;16.84;81.25;101387.59;5086943;28;20048;-78
2021/09/23 01:27:13;;;;;;;2.35;0.60;;;;;;;16.83;81.16;101386.00;5086808;28;20051;-79
2021/09/23 01:29:41;;;;;;;1.50;0.57;;;;;;;16.79;81.36;101382.31;5085341;28;20526;-79
2021/09/23 01:32:09;;;;;;;0.65;0.60;;;;;;;16.76;81.80;101383.88;5085030;28;20523;-79
2021/09/23 01:34:37;;;;;;;2.40;0.65;;;;;;;16.75;81.80;101382.28;5088482;28;20032;-79
2021/09/23 01:37:07;;;;;;;2.08;0.50;;;;;;;16.74;82.01;101379.84;5089662;28;20048;-80
2021/09/23 01:39:34;;;;;;;1.67;0.88;;;;;;;16.69;82.24;101364.19;5090810;28;20036;-79
2021/09/23 01:42:01;;;;;;;1.20;0.47;;;;;;;16.68;82.56;101365.34;5088555;28;20040;-79
2021/09/23 01:44:28;;;;;;;0.50;0.40;;;;;;;16.69;82.44;101361.38;5088701;28;20048;-80
2021/09/23 01:46:55;;;;;;;3.05;0.63;;;;;;;16.67;82.56;101351.75;5089641;28;20090;-80
2021/09/23 01:49:22;;;;;;;1.77;0.77;;;;;;;16.67;82.88;101351.75;5090663;28;20056;-80
2021/09/23 01:51:49;;;;;;;1.02;0.70;;;;;;;16.66;82.73;101341.75;5089619;28;20737;-80
2021/09/23 01:54:16;;;;;;;0.95;0.60;;;;;;;16.68;82.68;101336.59;5090500;28;20048;-80
2021/09/23 01:56:43;;;;;;;0.40;0.40;;;;;;;16.67;83.00;101351.75;5088891;28;20369;-80
2021/09/23 01:59:10;;;;;;;2.00;0.77;;;;;;;16.64;83.17;101355.28;5090792;28;20044;-79
2021/09/23 02:01:37;;;;;;;4.60;0.70;;;;;;;16.61;83.56;101344.84;5090429;28;20044;-80
2021/09/23 02:04:04;;;;;;;2.85;0.70;;;;;;;16.65;83.29;101342.94;5090259;28;20388;-79
2021/09/23 02:06:31;;;;;;;2.50;0.47;;;;;;;16.60;83.63;101348.84;5091125;28;20039;-79
2021/09/23 02:08:58;;;;;;;1.27;0.85;;;;;;;16.58;83.57;101342.78;5090177;28;20071;-79
2021/09/23 02:11:25;;;;;;;2.60;0.63;;;;;;;16.57;83.82;101349.59;5089037;28;20094;-80
2021/09/23 02:13:52;;;;;;;0.75;0.40;;;;;;;16.60;83.72;101357.22;5090311;28;20062;-79
2021/09/23 02:16:19;;;;;;;2.42;1.17;;;;;;;16.63;83.71;101350.88;5089893;28;20043;-80
2021/09/23 02:18:45;;;;;;;1.85;0.40;;;;;;;16.61;83.95;101353.22;5089594;28;20484;-80
2021/09/23 02:21:13;;;;;;;1.30;0.70;;;;;;;16.62;83.99;101355.69;5089859;28;20048;-80
2021/09/23 02:23:39;;;;;;;0.73;0.60;;;;;;;16.59;84.10;101358.41;5088541;28;20044;-79
2021/09/23 02:26:06;;;;;;;0.40;0.40;;;;;;;16.57;84.30;101352.38;5088804;28;20043;-79
2021/09/23 02:28:38;;;;;;;2.20;0.47;;;;;;;16.57;84.54;101349.59;5090239;28;20085;-80
2021/09/23 02:31:06;;;;;;;1.38;0.60;;;;;;;16.57;84.37;101353.19;5090204;28;20043;-80
2021/09/23 02:33:33;;;;;;;0.90;0.30;;;;;;;16.57;84.45;101349.59;5088484;28;20515;-79
2021/09/23 02:36:00;;;;;;;0.60;0.32;;;;;;;16.61;84.23;101356.03;5089340;28;20055;-79
2021/09/23 02:38:27;;;;;;;2.22;0.82;;;;;;;16.58;84.26;101348.38;5089853;28;20047;-80
2021/09/23 02:40:55;;;;;;;1.00;0.70;;;;;;;16.59;84.70;101338.81;5088212;28;20134;-80
2021/09/23 02:43:22;;;;;;;1.42;0.60;;;;;;;16.60;84.44;101351.63;5089807;28;20063;-80
2021/09/23 02:45:49;;;;;;;0.77;0.50;;;;;;;16.59;84.50;101345.22;5087215;28;20143;-80
2021/09/23 02:48:16;;;;;;;0.50;0.50;;;;;;;16.59;84.60;101341.63;5085145;28;20062;-79
2021/09/23 02:50:43;;;;;;;1.63;0.80;;;;;;;16.60;84.51;101346.03;5086927;28;20048;-79
2021/09/23 02:53:10;;;;;;;0.88;0.80;;;;;;;16.61;84.43;101336.47;5090256;28;20044;-79
2021/09/23 02:55:37;;;;;;;1.90;0.90;;;;;;;16.63;84.33;101339.69;5088015;28;20411;-79
2021/09/23 02:58:06;;;;;;;1.60;0.68;;;;;;;16.62;84.33;101346.47;5090086;28;20068;-80
2021/09/23 03:00:33;;;;;;;0.90;0.70;;;;;;;16.56;84.26;101336.78;5070754;28;20558;-79
2021/09/23 03:03:00;;;;;;;2.55;0.70;;;;;;;16.57;84.38;101341.19;5089711;28;20135;-80
2021/09/23 03:05:28;;;;;;;1.17;0.93;;;;;;;16.59;84.24;101344.41;5087266;28;20450;-79
2021/09/23 03:07:55;;;;;;;0.73;0.60;;;;;;;16.58;84.23;101337.19;5087307;28;20048;-79
2021/09/23 03:10:21;;;;;;;0.50;0.50;;;;;;;16.54;84.22;101348.34;5089736;28;20578;-79
2021/09/23 03:12:48;;;;;;;0.45;0.45;;;;;;;16.54;84.33;101347.53;5084875;28;20044;-79
2021/09/23 03:15:15;;;;;;;0.60;0.40;;;;;;;16.56;83.94;101347.94;5087864;28;20126;-79
2021/09/23 03:17:42;;;;;;;0.65;0.50;;;;;;;16.54;84.18;101358.69;5087367;28;20047;-80
2021/09/23 03:20:11;;;;;;;0.68;0.35;;;;;;;16.54;84.24;101350.31;5087890;28;20047;-80
2021/09/23 03:22:38;;;;;;;0.45;0.20;;;;;;;16.47;84.14;101348.16;5087750;28;20056;-79
2021/09/23 03:25:05;;;;;;;1.25;0.10;;;;;;;16.49;83.80;101342.22;5088043;28;20062;-80
2021/09/23 03:27:33;;;;;;;4.13;0.20;;;;;;;16.42;83.56;101340.88;5089397;28;20040;-80
2021/09/23 03:30:00;;;;;;;1.42;0.30;;;;;;;16.32;83.59;101341.50;5087808;28;20058;-80
2021/09/23 03:32:26;;;;;;;0.20;0.15;;;;;;;16.32;83.56;101344.28;5088232;28;20048;-80
2021/09/23 03:34:53;;;;;;;0.50;0.20;;;;;;;16.27;83.30;101355.75;5086568;28;20055;-79
2021/09/23 03:37:20;;;;;;;1.17;0.30;;;;;;;16.24;83.06;101356.50;5088458;28;20051;-79
2021/09/23 03:39:47;;;;;;;1.70;0.30;;;;;;;16.19;82.68;101361.56;5087040;28;20062;-79
2021/09/23 03:42:13;;;;;;;2.83;0.60;;;;;;;16.12;82.69;101367.03;5088362;28;20072;-81
2021/09/23 03:44:40;;;;;;;0.30;0.30;;;;;;;16.05;82.66;101353.72;5087460;28;20048;-80
2021/09/23 03:47:07;;;;;;;0.65;0.32;;;;;;;15.99;82.74;101354.38;5088232;28;20372;-80
2021/09/23 03:49:34;;;;;;;0.47;0.30;;;;;;;15.95;82.35;101343.13;5087011;28;20131;-80
2021/09/23 03:52:01;;;;;;;0.60;0.30;;;;;;;15.92;82.27;101349.44;5088208;28;20109;-79
2021/09/23 03:54:28;;;;;;;0.50;0.40;;;;;;;15.93;82.26;101348.28;5087397;28;20174;-79
2021/09/23 03:56:54;;;;;;;0.30;0.20;;;;;;;15.95;81.84;101350.69;5087652;28;20040;-79
2021/09/23 03:59:21;;;;;;;0.20;0.17;;;;;;;15.85;81.92;101349.31;5084586;28;20093;-80
2021/09/23 04:01:49;;;;;;;15.18;1.98;;;;;;;15.83;81.86;101346.84;5088749;28;20111;-80
2021/09/23 04:04:16;;;;;;;0.55;0.10;;;;;;;15.85;81.72;101354.88;5087914;28;20051;-79
2021/09/23 04:06:43;;;;;;;0.43;0.30;;;;;;;15.78;81.69;101349.13;5086068;28;20040;-79
2021/09/23 04:09:11;;;;;;;1.55;0.65;;;;;;;15.70;81.48;101337.00;5086558;28;20120;-79
2021/09/23 04:11:39;;;;;;;1.85;0.30;;;;;;;15.71;81.26;101340.59;5086674;28;20063;-79
2021/09/23 04:14:07;;;;;;;0.43;0.20;;;;;;;15.64;81.32;101343.25;5087530;28;20039;-79
2021/09/23 04:16:34;;;;;;;1.13;0.28;;;;;;;15.59;81.21;101341.56;5087770;28;20105;-79
2021/09/23 04:19:02;;;;;;;1.45;0.20;;;;;;;15.62;80.81;101340.03;5085370;28;20044;-79
2021/09/23 04:21:29;;;;;;;0.40;0.20;;;;;;;15.62;80.79;101342.81;5086170;28;20044;-79
2021/09/23 04:23:56;;;;;;;1.70;0.20;;;;;;;15.59;80.96;101340.75;5087567;28;20126;-80
2021/09/23 04:26:23;;;;;;;1.65;0.20;;;;;;;15.56;80.99;101344.25;5084179;28;20131;-79
2021/09/23 04:28:50;;;;;;;2.10;0.20;;;;;;;15.59;80.61;101329.59;5087631;28;20119;-79
2021/09/23 04:31:17;;;;;;;1.55;0.20;;;;;;;15.57;80.62;101343.06;5086216;28;20101;-79
2021/09/23 04:33:44;;;;;;;0.20;0.10;;;;;;;15.46;80.60;101336.47;5086017;28;20040;-79
2021/09/23 04:36:11;;;;;;;0.57;0.08;;;;;;;15.44;80.60;101342.34;5086612;28;20064;-79
2021/09/23 04:38:37;;;;;;;2.30;0.20;;;;;;;15.41;80.73;101336.72;5086270;28;20407;-79
2021/09/23 04:41:04;;;;;;;1.38;0.40;;;;;;;15.33;80.80;101334.94;5086845;28;20080;-79
2021/09/23 04:43:31;;;;;;;0.30;0.10;;;;;;;15.32;80.81;101331.31;5086953;28;20475;-79
2021/09/23 04:45:58;;;;;;;1.00;0.20;;;;;;;15.31;80.45;101334.47;5087233;28;20087;-79
2021/09/23 04:48:25;;;;;;;0.22;0.10;;;;;;;15.25;80.73;101331.94;5083415;28;20093;-79
2021/09/23 04:50:51;;;;;;;0.40;0.20;;;;;;;15.21;80.57;101336.66;5086065;28;20036;-79
2021/09/23 04:53:18;;;;;;;1.92;0.30;;;;;;;15.17;80.17;101329.34;5086783;28;20044;-79
2021/09/23 04:55:45;;;;;;;0.40;0.17;;;;;;;15.07;80.15;101335.47;5088036;28;20561;-79
2021/09/23 04:58:12;;;;;;;0.50;0.20;;;;;;;15.01;80.02;101337.72;5087751;28;20082;-79
2021/09/23 05:00:39;;;;;;;0.43;0.30;;;;;;;15.00;80.26;101333.34;5066071;28;20127;-79
2021/09/23 05:03:06;;;;;;;0.10;0.10;;;;;;;15.00;79.91;101335.31;5085208;28;20040;-79
2021/09/23 05:05:34;;;;;;;1.73;0.20;;;;;;;14.99;79.51;101336.47;5085262;28;20048;-79
2021/09/23 05:08:01;;;;;;;0.30;0.10;;;;;;;14.91;79.48;101334.69;5087887;28;20093;-79
2021/09/23 05:10:27;;;;;;;0.38;0.10;;;;;;;14.85;79.52;101338.94;5090746;28;20076;-79
2021/09/23 05:12:54;;;;;;;0.20;0.10;;;;;;;14.80;79.41;101331.63;5091826;28;20044;-79
2021/09/23 05:15:21;;;;;;;0.10;0.10;;;;;;;14.75;79.26;101328.28;5089705;28;20852;-79
2021/09/23 05:17:48;;;;;;;0.50;0.17;;;;;;;14.70;79.28;101339.72;5091483;28;20602;-79
2021/09/23 05:20:16;;;;;;;0.75;0.13;;;;;;;14.67;79.33;101357.97;5091528;28;20047;-79
2021/09/23 05:22:43;;;;;;;0.52;0.52;;;;;;;14.63;79.08;101348.72;5091517;28;20122;-79
2021/09/23 05:25:10;;;;;;;0.32;0.20;;;;;;;14.64;79.17;101367.03;5089860;28;20048;-79
2021/09/23 05:27:40;;;;;;;0.85;0.17;;;;;;;14.71;79.05;101355.28;5091059;28;20552;-79
2021/09/23 05:30:12;;;;;;;0.63;0.30;;;;;;;14.72;79.16;101368.06;5090042;28;20416;-79
2021/09/23 05:32:42;;;;;;;2.13;0.20;;;;;;;14.73;79.18;101362.09;5091239;28;20032;-79
2021/09/23 05:35:09;;;;;;;0.80;0.30;;;;;;;14.75;78.85;101361.75;5090083;28;20044;-79
2021/09/23 05:37:36;;;;;;;3.63;0.35;;;;;;;14.71;78.83;101367.25;5090847;28;20044;-79
2021/09/23 05:40:07;;;;;;;2.28;0.30;;;;;;;14.62;79.14;101364.63;5088354;28;20123;-79
2021/09/23 05:42:35;;;;;;;1.80;0.28;;;;;;;14.55;79.14;101369.19;5090452;28;20122;-79
2021/09/23 05:45:03;;;;;;;1.80;0.32;;;;;;;14.53;79.36;101372.31;5090951;28;20097;-79
2021/09/23 05:47:30;;;;;;;2.58;0.55;;;;;;;14.59;79.22;101367.28;5082294;28;20046;-80
2021/09/23 05:49:57;;;;;;;1.00;0.30;;;;;;;14.63;79.25;101373.78;5089625;28;20489;-80
2021/09/23 05:52:23;;;;;;;0.75;0.30;;;;;;;14.57;79.33;101369.63;5090074;28;20044;-79
2021/09/23 05:54:50;;;;;;;1.50;0.40;;;;;;;14.56;79.35;101366.03;5089432;28;20510;-80
2021/09/23 05:57:24;;;;;;;1.27;0.50;;;;;;;14.60;79.28;101360.56;5088145;28;20070;-80
2021/09/23 05:59:51;;;;;;;3.00;0.73;;;;;;;14.56;79.25;101365.25;5089845;28;20051;-80
2021/09/23 06:02:18;;;;;;;1.75;0.60;;;;;;;14.46;79.54;101374.09;5089015;28;20499;-80
2021/09/23 06:04:46;;;;;;;0.95;0.40;;;;;;;14.42;79.68;101381.56;5091231;28;20039;-80
2021/09/23 06:07:13;;;;;;;1.13;0.35;;;;;;;14.41;79.74;101394.69;5089482;28;20135;-80
2021/09/23 06:09:40;;;;;;;2.25;0.50;;;;;;;14.47;79.65;101389.66;5072406;28;20036;-80
2021/09/23 06:12:07;;;;;;;1.80;0.60;;;;;;;14.51;79.69;101401.69;5089748;28;20036;-80
2021/09/23 06:14:35;;;;;;;1.70;0.30;;;;;;;14.47;79.61;101400.81;5089808;28;20043;-81
2021/09/23 06:17:02;;;;;;;3.22;0.30;;;;;;;14.48;79.43;101400.44;5086387;28;20071;-80
2021/09/23 06:19:29;;;;;;;1.55;0.60;;;;;;;14.54;79.24;101406.56;5089157;28;20036;-80
2021/09/23 06:21:56;;;;;;;0.55;0.30;;;;;;;14.56;79.06;101415.41;5089225;28;20117;-80
2021/09/23 06:24:22;;;;;;;1.52;0.50;;;;;;;14.59;79.31;101420.25;5089632;28;20047;-80
2021/09/23 06:26:50;;;;;;;0.40;0.38;;;;;;;14.60;79.32;101421.88;5089662;28;20053;-80
2021/09/23 06:29:17;;;;;;;2.95;0.47;;;;;;;14.60;79.00;101419.09;5089290;28;20385;-80
2021/09/23 06:31:44;;;;;;;0.50;0.50;;;;;;;14.63;78.87;101423.94;5071608;28;20388;-80
2021/09/23 06:34:11;;;;;;;14.63;1.52;;;;;;;14.61;78.93;101429.09;5087097;28;20036;-79
2021/09/23 06:36:38;;;;;;;0.43;0.40;;;;;;;14.61;78.96;101431.88;5089158;28;20079;-79
2021/09/23 06:39:05;;;;;;;1.80;0.60;;;;;;;14.62;78.94;101427.91;5089050;28;20544;-79
2021/09/23 06:41:33;;;;;;;2.05;0.52;;;;;;;14.63;78.72;101421.16;5085136;28;20478;-79
2021/09/23 06:44:02;;;;;;;2.58;0.38;;;;;;;14.58;78.63;101436.19;5086392;28;20115;-79
2021/09/23 06:46:30;;;;;;;0.60;0.38;;;;;;;14.54;77.93;101434.44;5087678;28;20036;-79
2021/09/23 06:48:57;;;;;;;2.35;0.40;;;;;;;14.42;78.28;101454.00;5088186;28;20122;-79
2021/09/23 06:51:24;;;;;;;1.33;0.35;;;;;;;14.36;78.33;101449.84;5088683;28;20044;-79
2021/09/23 06:54:05;;;;;;;0.90;0.43;;;;;;;14.30;78.30;101451.22;5088671;28;20101;-79
2021/09/23 06:56:34;;;;;;;1.42;0.70;;;;;;;14.30;78.37;101467.91;5088993;28;20044;-79
2021/09/23 06:59:01;;;;;;;2.72;0.50;;;;;;;14.30;78.05;101459.56;5088824;28;20036;-79
2021/09/23 07:01:27;;;;;;;2.08;0.55;;;;;;;14.24;78.13;101461.00;5089232;28;21438;-79
2021/09/23 07:03:55;;;;;;;1.15;0.20;;;;;;;14.16;78.20;101451.63;5087802;28;20392;-79
2021/09/23 07:06:22;;;;;;;1.00;0.22;;;;;;;14.15;78.22;101450.00;5083322;28;20051;-80
2021/09/23 07:08:49;;;;;;;2.25;1.10;;;;;;;14.10;78.26;101441.88;5088168;28;20399;-79
2021/09/23 07:11:16;;;;;;;0.63;0.40;;;;;;;14.07;78.33;101458.47;5089463;28;20533;-79
2021/09/23 07:13:44;;;;;;;3.42;0.68;;;;;;;13.96;78.47;101470.09;5087847;28;20036;-79
2021/09/23 07:16:11;;;;;;;3.75;0.43;;;;;;;13.96;78.43;101475.66;5088124;28;20032;-79
2021/09/23 07:18:39;;;;;;;1.45;0.30;;;;;;;13.93;78.56;101481.94;5088315;28;20040;-79
2021/09/23 07:21:07;;;;;;;1.13;0.30;;;;;;;13.93;78.17;101492.25;5089473;28;20132;-79
2021/09/23 07:23:35;;;;;;;2.08;0.45;;;;;;;13.94;78.48;101494.69;5089485;28;20082;-79
2021/09/23 07:26:02;;;;;;;3.20;0.45;;;;;;;13.94;78.62;101493.88;5089188;28;20040;-79
2021/09/23 07:28:30;;;;;;;7.45;0.98;;;;;;;13.92;78.42;101501.78;5076856;28;20075;-79
2021/09/23 07:30:57;;;;;;;2.58;0.35;;;;;;;13.99;78.37;101502.00;5069961;28;20036;-79
2021/09/23 07:33:24;;;;;;;3.67;0.93;;;;;;;13.96;78.28;101495.16;5088321;28;20130;-80
2021/09/23 07:35:52;;;;;;;3.40;0.68;;;;;;;14.00;78.07;101498.06;5089981;28;20146;-79
2021/09/23 07:38:19;;;;;;;5.82;1.02;;;;;;;13.97;77.75;101493.19;5087692;28;20044;-79
2021/09/23 07:40:46;;;;;;;1.38;0.40;;;;;;;13.95;77.94;101490.72;5089492;28;20119;-79
2021/09/23 07:43:15;;;;;;;2.85;0.55;;;;;;;13.95;77.87;101490.72;5090178;28;20108;-79
2021/09/23 07:45:42;;;;;;;1.25;0.40;;;;;;;13.98;77.78;101492.81;5089286;28;20083;-79
2021/09/23 07:48:09;;;;;;;3.22;0.50;;;;;;;14.00;77.44;101486.94;5084366;28;20048;-84
2021/09/23 07:50:36;;;;;;;1.63;0.70;;;;;;;13.99;77.25;101491.66;5088088;28;20055;-79
2021/09/23 07:53:03;;;;;;;4.18;0.55;;;;;;;14.06;77.33;101496.63;5085963;28;20048;-79
2021/09/23 07:55:29;;;;;;;5.28;0.70;;;;;;;14.10;77.47;101499.53;5087816;28;20037;-79
2021/09/23 07:57:56;;;;;;;2.75;0.50;;;;;;;14.06;77.25;101507.00;5088040;28;20050;-78
2021/09/23 08:00:24;;;;;;;2.88;0.60;;;;;;;14.12;77.18;101505.56;5088045;28;20575;-78
2021/09/23 08:02:52;;;;;;;3.45;0.70;;;;;;;14.14;77.16;101508.84;5088015;28;20043;-78
2021/09/23 08:05:20;;;;;;;6.32;0.73;;;;;;;14.22;76.76;101491.16;5089037;28;20048;-77
2021/09/23 08:07:48;;;;;;;1.60;0.70;;;;;;;14.24;77.08;101497.19;5088431;28;20043;-80
2021/09/23 08:10:16;;;;;;;3.88;0.70;;;;;;;14.25;76.76;101493.25;5088410;28;20066;-82
2021/09/23 08:12:45;;;;;;;29.02;2.53;;;;;;;14.27;76.76;101480.56;5087928;28;20048;-78
2021/09/23 08:15:12;;;;;;;5.20;1.20;;;;;;;14.36;76.44;101484.09;5086341;28;20039;-79
2021/09/23 08:17:39;;;;;;;16.77;2.42;;;;;;;14.39;76.21;101485.34;5090118;28;20066;-78
2021/09/23 08:20:07;;;;;;;5.13;0.90;;;;;;;14.50;76.23;101489.25;5102298;28;20044;-79
2021/09/23 08:22:35;;;;;;;4.30;0.90;;;;;;;14.58;75.92;101485.53;5089041;28;20040;-78
2021/09/23 08:25:04;;;;;;;9.80;1.58;;;;;;;14.60;75.68;101483.19;5088102;28;20406;-78
2021/09/23 08:27:31;;;;;;;6.38;0.98;;;;;;;14.70;75.65;101476.28;5088799;28;21525;-78
2021/09/23 08:29:58;;;;;;;6.22;0.93;;;;;;;14.81;75.63;101469.84;5089066;28;20097;-78
2021/09/23 08:32:25;;;;;;;4.63;1.17;;;;;;;14.95;75.22;101478.63;5088131;28;20075;-78
2021/09/23 08:34:52;;;;;;;8.27;1.30;;;;;;;14.92;74.69;101451.44;5086986;28;20040;-77
2021/09/23 08:37:19;;;;;;;5.25;1.25;;;;;;;14.93;74.25;101455.03;5085982;28;20048;-78
2021/09/23 08:39:47;;;;;;;6.03;1.50;;;;;;;14.90;74.39;101459.34;5085803;28;20514;-77
2021/09/23 08:42:17;;;;;;;5.18;1.30;;;;;;;14.97;74.33;101448.38;5085938;28;20056;-77
2021/09/23 08:44:45;;;;;;;11.38;1.45;;;;;;;14.98;74.16;101449.19;5088504;28;20117;-79
2021/09/23 08:47:12;;;;;;;6.82;2.78;;;;;;;15.06;74.27;101451.78;5080717;28;20044;-79
2021/09/23 08:49:39;;;;;;;7.63;1.30;;;;;;;15.21;74.41;101448.22;5087280;28;20043;-78
2021/09/23 08:52:06;;;;;;;15.98;3.75;;;;;;;15.31;73.94;101457.22;5088454;28;20070;-78
2021/09/23 08:54:32;;;;;;;13.05;2.63;;;;;;;15.46;74.38;101453.66;5087833;28;20084;-78
2021/09/23 08:57:01;;;;;;;9.05;2.00;;;;;;;15.71;74.29;101471.81;5084046;28;20128;-78
2021/09/23 08:59:30;;;;;;;11.52;2.65;;;;;;;15.95;73.70;101474.38;5085544;28;20495;-78
2021/09/23 09:02:00;;;;;;;13.75;2.45;;;;;;;16.19;73.16;101471.34;5086328;28;20067;-78
2021/09/23 09:04:32;;;;;;;7.53;1.75;;;;;;;16.39;71.85;101470.19;5086939;28;20044;-79
2021/09/23 09:07:02;;;;;;;10.23;1.35;;;;;;;16.57;71.38;101465.00;5088427;28;20040;-78
2021/09/23 09:09:29;;;;;;;9.30;1.55;;;;;;;16.72;71.34;101466.09;5086908;28;20131;-78
2021/09/23 09:12:12;;;;;;;6.82;2.38;;;;;;;16.93;69.96;101480.50;5087689;28;20047;-78
2021/09/23 09:14:42;;;;;;;9.60;2.15;;;;;;;17.32;70.00;101470.81;5085840;28;20456;-79
2021/09/23 09:17:09;;;;;;;10.75;1.52;;;;;;;17.73;68.85;101483.16;5089131;28;20040;-78
2021/09/23 09:19:50;;;;;;;8.32;1.80;;;;;;;18.02;65.64;101479.59;5087808;28;20175;-76
2021/09/23 09:22:24;;;;;;;11.45;2.10;;;;;;;18.12;65.46;101484.56;5087887;28;20075;-77
2021/09/23 09:24:56;;;;;;;6.78;1.38;;;;;;;18.38;65.86;101480.06;5084735;28;20036;-76
2021/09/23 09:27:39;;;;;;;9.47;1.97;;;;;;;18.67;62.64;101476.47;5083784;28;20771;-76
2021/09/23 09:30:22;;;;;;;14.18;2.72;;;;;;;18.98;60.57;101466.81;5086484;28;20291;-76
2021/09/23 09:32:51;;;;;;;10.55;2.00;;;;;;;19.08;63.43;101452.09;5081515;28;20100;-76
2021/09/23 09:35:23;;;;;;;13.70;2.00;;;;;;;19.35;62.47;101447.94;5085164;28;20831;-76
2021/09/23 09:37:51;;;;;;;13.20;2.17;;;;;;;19.78;61.56;101438.66;5093086;28;20040;-76
2021/09/23 09:40:22;;;;;;;11.18;2.38;;;;;;;20.13;60.57;101417.59;5081152;28;20118;-76
2021/09/23 09:42:53;;;;;;;8.57;2.17;;;;;;;20.39;59.82;101428.59;5082224;28;20043;-77
2021/09/23 09:45:28;;;;;;;14.35;2.40;;;;;;;20.62;59.08;101434.72;5079710;28;20043;-77
2021/09/23 09:47:56;;;;;;;11.18;4.47;;;;;;;20.78;58.45;101423.13;5083789;28;20047;-77
2021/09/23 09:50:36;;;;;;;9.13;2.25;;;;;;;20.63;54.78;101425.88;5081874;28;20085;-76
2021/09/23 09:53:06;;;;;;;13.13;2.13;;;;;;;20.53;57.10;101425.84;5065133;28;20090;-77
2021/09/23 09:55:35;;;;;;;12.77;2.55;;;;;;;20.62;56.83;101426.28;5084684;28;20062;-76
2021/09/23 09:58:04;;;;;;;9.90;2.33;;;;;;;20.81;56.71;101442.81;5088076;28;20040;-76
2021/09/23 10:00:32;;;;;;;8.73;2.17;;;;;;;20.83;55.79;101433.97;5088048;28;20040;-77
2021/09/23 10:03:00;;;;;;;10.65;2.50;;;;;;;20.88;55.72;101437.22;5089708;28;20059;-77
2021/09/23 10:05:28;;;;;;;12.60;1.83;;;;;;;20.85;54.77;101449.25;5088738;28;20028;-77
2021/09/23 10:07:57;;;;;;;12.77;3.60;;;;;;;20.85;54.81;101454.09;5090006;28;20044;-77
2021/09/23 10:10:29;;;;;;;14.43;1.98;;;;;;;20.81;54.51;101465.31;5087132;28;20131;-77
2021/09/23 10:12:59;;;;;;;8.23;2.60;;;;;;;20.89;54.54;101475.41;5088001;28;20036;-76
2021/09/23 10:15:27;;;;;;;10.95;2.60;;;;;;;20.90;53.92;101482.66;5086740;28;20041;-77
2021/09/23 10:18:03;;;;;;;17.23;2.65;;;;;;;21.07;54.26;101496.03;5089888;28;20503;-77
2021/09/23 10:20:31;;;;;;;10.75;2.60;;;;;;;20.87;53.71;101496.69;5089464;28;20040;-77
2021/09/23 10:22:59;;;;;;;11.13;2.60;;;;;;;20.56;54.07;101498.19;5087394;28;20544;-77
2021/09/23 10:25:32;;;;;;;11.05;2.70;;;;;;;20.59;53.73;101495.41;5089242;28;20568;-77
2021/09/23 10:28:02;;;;;;;12.55;2.42;;;;;;;20.67;53.89;101495.44;5087324;28;20135;-76
2021/09/23 10:30:37;;;;;;;10.93;2.60;;;;;;;20.78;53.24;101488.66;5088810;28;20050;-76
2021/09/23 10:33:06;;;;;;;12.52;2.28;;;;;;;20.78;53.42;101485.84;5086513;28;20048;-77
2021/09/23 10:35:34;;;;;;;6.80;2.40;;;;;;;20.80;53.58;101491.88;5086076;28;20165;-76
2021/09/23 10:38:06;;;;;;;13.13;2.28;;;;;;;20.55;53.48;101493.75;5088588;28;20123;-76
2021/09/23 10:40:37;;;;;;;8.88;2.25;;;;;;;20.54;53.46;101495.00;5088237;28;20040;-77
2021/09/23 10:43:09;;;;;;;12.73;2.40;;;;;;;20.65;53.59;101478.97;5088416;28;20419;-76
2021/09/23 10:45:36;;;;;;;15.18;3.25;;;;;;;20.92;53.25;101483.06;5089703;28;20040;-80
2021/09/23 10:48:03;;;;;;;14.02;2.92;;;;;;;20.99;52.84;101476.66;5090391;28;20048;-79
2021/09/23 10:50:33;;;;;;;16.50;3.55;;;;;;;20.96;52.76;101483.88;5084015;28;20052;-78
2021/09/23 10:53:02;;;;;;;12.18;2.55;;;;;;;20.85;53.26;101483.03;5087674;28;20028;-78
2021/09/23 10:55:34;;;;;;;8.55;1.85;;;;;;;20.61;53.23;101484.56;5087826;28;20058;-78
2021/09/23 10:58:02;;;;;;;14.35;3.53;;;;;;;20.37;53.93;101482.44;5086625;28;20032;-79
2021/09/23 11:00:32;;;;;;;10.07;2.30;;;;;;;20.11;54.06;101487.47;5086602;28;20713;-79
2021/09/23 11:03:10;;;;;;;10.15;2.40;;;;;;;19.75;54.81;101487.22;5086076;28;20097;-79
2021/09/23 11:05:41;;;;;;;13.18;2.97;;;;;;;19.62;55.30;101488.72;5087253;28;20082;-79
2021/09/23 11:08:14;;;;;;;19.48;3.67;;;;;;;19.47;55.60;101483.38;5087097;28;20044;-79
2021/09/23 11:10:43;;;;;;;11.60;2.40;;;;;;;19.33;56.09;101481.19;5088210;28;20044;-79
2021/09/23 11:13:12;;;;;;;12.80;2.25;;;;;;;19.23;56.40;101490.34;5086971;28;20736;-79
2021/09/23 11:15:42;;;;;;;10.65;3.20;;;;;;;18.99;56.68;101476.84;5086815;28;20036;-79
2021/09/23 11:18:12;;;;;;;21.88;2.75;;;;;;;18.85;57.13;101480.28;5084998;28;20056;-79
2021/09/23 11:20:50;;;;;;;8.48;2.40;;;;;;;18.83;57.35;101472.28;5087140;28;20082;-79
2021/09/23 11:23:19;;;;;;;7.82;2.53;;;;;;;18.84;57.39;101475.91;5090645;28;20135;-79
2021/09/23 11:25:48;;;;;;;11.70;2.45;;;;;;;18.92;57.59;101476.78;5086782;28;20079;-78
2021/09/23 11:28:20;;;;;;;11.38;3.58;;;;;;;19.02;57.72;101473.28;5087483;28;20055;-79